createdAt,value
2023-08-15T00:01:32.679Z,102096.88
2023-08-15T00:04:02.039Z,102137.28
2023-08-15T00:06:29.814Z,102224.25
2023-08-15T00:08:57.600Z,102247.91
2023-08-15T00:11:25.729Z,102280.97
2023-08-15T00:13:56.924Z,102301.91
2023-08-15T00:16:25.562Z,102528.88
2023-08-15T00:18:53.737Z,102560.81
2023-08-15T00:21:22.921Z,102604.59
2023-08-15T00:23:50.588Z,102615.44
2023-08-15T00:26:18.806Z,102611.09
2023-08-15T00:28:46.861Z,102616.56
2023-08-15T00:31:17.134Z,102608.97
2023-08-15T00:33:44.845Z,102601.97
2023-08-15T00:36:12.583Z,102633.13
2023-08-15T00:38:41.773Z,102645.88
2023-08-15T00:41:09.512Z,102661.03
2023-08-15T00:43:37.467Z,102692.97
2023-08-15T00:46:09.226Z,102717.66
2023-08-15T00:48:38.743Z,102747.09
2023-08-15T00:51:09.866Z,102761.16
2023-08-15T00:53:38.071Z,102778.03
2023-08-15T00:56:08.635Z,102787.16
2023-08-15T00:58:36.437Z,102814.66
2023-08-15T01:01:05.129Z,102837.50
2023-08-15T01:03:33.465Z,102855.06
2023-08-15T01:06:01.732Z,102812.25
2023-08-15T01:08:29.525Z,102813.25
2023-08-15T01:10:58.309Z,102833.44
2023-08-15T01:13:33.293Z,102850.13
2023-08-15T01:16:02.542Z,102843.00
2023-08-15T01:18:35.686Z,102838.38
2023-08-15T01:21:04.595Z,102834.88
2023-08-15T01:23:44.304Z,102850.88
2023-08-15T01:26:13.211Z,102843.75
2023-08-15T01:28:41.237Z,102843.41
2023-08-15T01:31:16.593Z,102812.91
2023-08-15T01:33:52.839Z,102797.53
2023-08-15T01:36:26.614Z,102797.31
2023-08-15T01:39:01.452Z,102793.78
2023-08-15T01:41:34.096Z,102802.03
2023-08-15T01:44:03.137Z,102800.28
2023-08-15T01:46:31.780Z,102814.00
2023-08-15T01:49:00.914Z,102833.31
2023-08-15T01:51:28.721Z,102855.91
2023-08-15T01:53:57.858Z,102849.97
2023-08-15T01:56:26.398Z,102834.06
2023-08-15T01:58:54.311Z,102812.19
2023-08-15T02:01:23.652Z,102790.38
2023-08-15T02:03:51.470Z,102776.66
2023-08-15T02:06:19.228Z,102782.38
2023-08-15T02:08:47.312Z,102792.59
2023-08-15T02:11:16.655Z,102811.81
2023-08-15T02:13:44.447Z,102828.34
2023-08-15T02:16:12.241Z,102837.25
2023-08-15T02:18:42.036Z,102848.88
2023-08-15T02:21:11.514Z,102847.34
2023-08-15T02:23:39.370Z,102849.94
2023-08-15T02:26:07.640Z,102814.84
2023-08-15T02:28:37.640Z,102805.59
2023-08-15T02:31:06.352Z,102766.34
2023-08-15T02:33:34.534Z,102741.72
2023-08-15T02:36:07.322Z,102746.75
2023-08-15T02:38:35.320Z,102731.16
2023-08-15T02:41:03.356Z,102719.84
2023-08-15T02:43:31.247Z,102719.31
2023-08-15T02:46:02.384Z,102721.06
2023-08-15T02:48:30.379Z,102721.94
2023-08-15T02:50:58.117Z,102718.19
2023-08-15T02:53:25.986Z,102736.31
2023-08-15T02:55:54.114Z,102760.25
2023-08-15T02:58:21.872Z,102809.78
2023-08-15T03:00:49.659Z,102869.03
2023-08-15T03:03:19.044Z,102935.47
2023-08-15T03:05:55.145Z,103015.19
2023-08-15T03:08:23.190Z,103041.00
2023-08-15T03:10:52.100Z,103101.41
2023-08-15T03:13:20.540Z,103140.16
2023-08-15T03:15:53.785Z,103136.91
2023-08-15T03:18:23.400Z,103108.75
2023-08-15T03:20:57.207Z,103087.38
2023-08-15T03:23:25.132Z,103035.59
2023-08-15T03:25:57.555Z,103035.47
2023-08-15T03:28:29.360Z,103086.25
2023-08-15T03:30:58.087Z,103175.88
2023-08-15T03:33:29.757Z,103256.75
2023-08-15T03:35:57.548Z,103420.41
2023-08-15T03:38:25.514Z,103546.84
2023-08-15T03:41:03.545Z,103695.44
2023-08-15T03:43:31.936Z,103832.03
2023-08-15T03:46:00.212Z,104019.22
2023-08-15T03:48:32.049Z,104218.06
2023-08-15T03:51:01.272Z,104468.34
2023-08-15T03:53:29.712Z,104654.22
2023-08-15T03:55:59.178Z,104771.53
2023-08-15T03:58:27.200Z,104880.63
2023-08-15T04:00:55.171Z,105058.19
2023-08-15T04:03:24.076Z,105242.28
2023-08-15T04:05:54.266Z,105372.09
2023-08-15T04:08:22.360Z,105527.69
2023-08-15T04:10:50.253Z,105566.31
2023-08-15T04:13:19.050Z,105520.59
2023-08-15T04:15:47.726Z,105460.97
2023-08-15T04:18:16.201Z,105444.47
2023-08-15T04:20:44.807Z,105524.47
2023-08-15T04:23:14.324Z,105561.97
2023-08-15T04:25:42.246Z,105806.13
2023-08-15T04:28:10.093Z,105936.28
2023-08-15T04:30:39.190Z,106094.75
2023-08-15T04:33:07.204Z,106373.97
2023-08-15T04:35:35.827Z,106597.41
2023-08-15T04:38:03.811Z,106818.97
2023-08-15T04:40:35.089Z,106894.97
2023-08-15T04:43:03.699Z,106862.00
2023-08-15T04:45:32.224Z,106848.22
2023-08-15T04:48:00.208Z,106753.06
2023-08-15T04:50:28.209Z,106843.69
2023-08-15T04:52:56.018Z,106874.81
2023-08-15T04:55:25.089Z,106957.19
2023-08-15T04:57:54.488Z,106965.44
2023-08-15T05:00:22.686Z,106945.28
2023-08-15T05:02:50.614Z,106884.81
2023-08-15T05:05:18.674Z,106814.38
2023-08-15T05:07:47.413Z,106805.22
2023-08-15T05:10:15.330Z,106768.53
2023-08-15T05:12:45.653Z,106706.28
2023-08-15T05:15:15.667Z,106626.66
2023-08-15T05:17:45.625Z,106534.16
2023-08-15T05:20:14.552Z,106357.47
2023-08-15T05:22:42.976Z,106232.06
2023-08-15T05:25:11.353Z,106119.47
2023-08-15T05:27:48.242Z,105986.88
2023-08-15T05:30:18.011Z,105923.78
2023-08-15T05:32:46.703Z,105853.44
2023-08-15T05:35:15.188Z,105806.19
2023-08-15T05:37:44.024Z,105829.81
2023-08-15T05:40:12.728Z,105883.91
2023-08-15T05:42:41.375Z,105837.25
2023-08-15T05:45:11.090Z,105829.91
2023-08-15T05:47:41.024Z,105828.09
2023-08-15T05:50:12.665Z,105785.25
2023-08-15T05:52:40.922Z,105807.91
2023-08-15T05:55:10.148Z,105820.75
2023-08-15T05:57:38.700Z,105883.84
2023-08-15T06:00:09.822Z,105913.22
2023-08-15T06:02:47.839Z,106012.97
2023-08-15T06:05:18.554Z,106035.88
2023-08-15T06:07:47.124Z,105705.09
2023-08-15T06:10:15.803Z,105224.00
2023-08-15T06:12:44.299Z,104800.63
2023-08-15T06:15:12.710Z,104473.59
2023-08-15T06:17:43.252Z,104743.97
2023-08-15T06:20:12.667Z,104601.09
2023-08-15T06:22:41.026Z,104446.56
2023-08-15T06:25:10.077Z,104340.88
2023-08-15T06:27:38.300Z,104235.00
2023-08-15T06:30:07.757Z,104092.38
2023-08-15T06:32:36.284Z,103959.41
2023-08-15T06:35:07.033Z,103801.63
2023-08-15T06:37:35.727Z,103666.53
2023-08-15T06:40:04.878Z,103542.84
2023-08-15T06:42:32.854Z,103303.06
2023-08-15T06:45:07.557Z,103132.94
2023-08-15T06:47:35.509Z,103033.31
2023-08-15T06:50:05.192Z,102948.34
2023-08-15T06:52:33.037Z,102957.28
2023-08-15T06:55:02.734Z,102971.28
2023-08-15T06:57:30.686Z,102984.19
2023-08-15T06:59:58.447Z,103044.56
2023-08-15T07:02:26.392Z,103159.47
2023-08-15T07:04:54.324Z,103265.25
2023-08-15T07:07:25.174Z,103347.56
2023-08-15T07:09:53.071Z,103434.97
2023-08-15T07:12:21.138Z,103512.34
2023-08-15T07:14:49.205Z,103538.16
2023-08-15T07:17:17.101Z,103473.34
2023-08-15T07:19:44.956Z,103357.28
2023-08-15T07:22:12.803Z,103246.69
2023-08-15T07:24:42.102Z,103202.72
2023-08-15T07:27:10.277Z,103162.00
2023-08-15T07:29:38.114Z,103124.28
2023-08-15T07:32:07.313Z,103017.81
2023-08-15T07:34:35.350Z,102918.41
2023-08-15T07:37:03.536Z,102754.16
2023-08-15T07:39:31.312Z,102577.16
2023-08-15T07:42:00.745Z,102444.41
2023-08-15T07:44:29.112Z,102379.38
2023-08-15T07:46:57.018Z,102325.69
2023-08-15T07:49:24.868Z,102240.69
2023-08-15T07:51:54.103Z,102159.06
2023-08-15T07:54:22.095Z,102047.59
2023-08-15T07:56:49.917Z,101912.69
2023-08-15T07:59:19.314Z,101850.03
2023-08-15T08:01:47.334Z,101730.88
2023-08-15T08:04:15.235Z,101649.72
2023-08-15T08:06:43.093Z,101587.53
2023-08-15T08:09:10.906Z,101561.25
2023-08-15T08:11:40.855Z,101566.72
2023-08-15T08:14:08.683Z,101566.28
2023-08-15T08:16:38.210Z,101545.78
2023-08-15T08:19:06.749Z,101519.78
2023-08-15T08:21:38.013Z,101500.88
2023-08-15T08:24:07.051Z,101461.41
2023-08-15T08:26:34.926Z,101435.31
2023-08-15T08:29:02.882Z,101429.09
2023-08-15T08:31:30.733Z,101421.69
2023-08-15T08:34:00.071Z,101402.56
2023-08-15T08:36:28.126Z,101355.19
2023-08-15T08:38:56.175Z,101343.78
2023-08-15T08:41:25.280Z,101329.25
2023-08-15T08:43:53.501Z,101305.69
2023-08-15T08:46:21.782Z,101299.03
2023-08-15T08:48:51.223Z,101277.78
2023-08-15T08:51:22.888Z,101255.97
2023-08-15T08:53:50.808Z,101240.34
2023-08-15T08:56:20.180Z,101233.75
2023-08-15T08:58:52.232Z,101236.50
2023-08-15T09:01:20.443Z,101225.50
2023-08-15T09:03:48.480Z,101213.09
2023-08-15T09:06:17.061Z,101214.44
2023-08-15T09:08:46.343Z,101202.72
2023-08-15T09:11:14.205Z,101205.09
2023-08-15T09:13:48.023Z,101232.63
2023-08-15T09:16:16.233Z,101237.94
2023-08-15T09:18:44.482Z,101241.22
2023-08-15T09:21:14.772Z,101251.69
2023-08-15T09:23:43.090Z,101246.34
2023-08-15T09:26:15.966Z,101263.81
2023-08-15T09:28:45.091Z,101253.47
2023-08-15T09:31:14.362Z,101239.72
2023-08-15T09:33:43.451Z,101235.38
2023-08-15T09:36:13.947Z,101225.78
2023-08-15T09:38:42.209Z,101215.78
2023-08-15T09:41:13.195Z,101213.13
2023-08-15T09:43:52.931Z,101219.06
2023-08-15T09:46:22.127Z,101211.16
2023-08-15T09:48:52.562Z,101190.50
2023-08-15T09:51:21.079Z,101186.41
2023-08-15T09:53:50.342Z,101186.41
2023-08-15T09:56:19.565Z,101165.84
2023-08-15T09:58:47.977Z,101167.91
2023-08-15T10:01:20.232Z,101173.00
2023-08-15T10:03:48.938Z,101159.09
2023-08-15T10:06:17.768Z,101175.81
2023-08-15T10:08:47.280Z,101185.56
2023-08-15T10:11:15.565Z,101159.03
2023-08-15T10:13:43.883Z,101162.94
2023-08-15T10:16:14.331Z,101163.03
2023-08-15T10:18:55.056Z,101187.28
2023-08-15T10:21:24.422Z,101176.44
2023-08-15T10:23:54.808Z,101176.25
2023-08-15T10:26:23.303Z,101177.25
2023-08-15T10:28:51.293Z,101183.31
2023-08-15T10:31:36.151Z,101183.31
2023-08-15T10:34:06.925Z,101177.31
2023-08-15T10:36:34.841Z,101178.19
2023-08-15T10:39:06.563Z,101192.78
2023-08-15T10:41:36.201Z,101173.88
2023-08-15T10:44:07.826Z,101179.72
2023-08-15T10:46:37.239Z,101172.13
2023-08-15T10:49:09.830Z,101179.03
2023-08-15T10:51:39.478Z,101181.47
2023-08-15T10:54:09.242Z,101183.69
2023-08-15T10:56:40.097Z,101188.13
2023-08-15T10:59:09.983Z,101205.22
2023-08-15T11:01:39.449Z,101211.41
2023-08-15T11:04:10.664Z,101192.28
2023-08-15T11:06:44.266Z,101192.13
2023-08-15T11:09:12.712Z,101198.50
2023-08-15T11:11:41.098Z,101187.97
2023-08-15T11:14:17.057Z,101206.94
2023-08-15T11:16:45.058Z,101217.25
2023-08-15T11:19:16.587Z,101213.97
2023-08-15T11:21:44.596Z,101210.22
2023-08-15T11:24:12.765Z,101203.84
2023-08-15T11:26:42.530Z,101199.00
2023-08-15T11:29:12.084Z,101199.34
2023-08-15T11:31:40.643Z,101196.25
2023-08-15T11:34:12.450Z,101182.63
2023-08-15T11:36:42.354Z,101203.50
2023-08-15T11:39:13.711Z,101212.78
2023-08-15T11:41:42.013Z,101222.38
2023-08-15T11:44:09.737Z,101227.94
2023-08-15T11:46:52.967Z,101264.63
2023-08-15T11:49:23.356Z,101292.69
2023-08-15T11:51:52.829Z,101283.19
2023-08-15T11:54:20.608Z,101285.78
2023-08-15T11:56:49.477Z,101290.22
2023-08-15T11:59:19.172Z,101285.41
2023-08-15T12:01:47.227Z,101295.44
2023-08-15T12:04:15.287Z,101303.34
2023-08-15T12:06:43.286Z,101312.47
2023-08-15T12:09:14.170Z,101326.06
2023-08-15T12:11:42.208Z,101329.50
2023-08-15T12:14:19.788Z,101334.81
2023-08-15T12:16:47.868Z,101341.19
2023-08-15T12:19:18.799Z,101340.72
2023-08-15T12:21:50.437Z,101341.41
2023-08-15T12:24:19.592Z,101330.56
2023-08-15T12:26:47.558Z,101327.63
2023-08-15T12:29:17.856Z,101318.34
2023-08-15T12:31:46.328Z,101299.75
2023-08-15T12:34:14.140Z,101294.97
2023-08-15T12:36:42.174Z,101327.00
2023-08-15T12:39:10.597Z,101354.25
2023-08-15T12:41:39.892Z,101383.75
2023-08-15T12:44:07.716Z,101384.78
2023-08-15T12:46:35.933Z,101392.16
2023-08-15T12:49:06.907Z,101395.59
2023-08-15T12:51:36.903Z,101381.66
2023-08-15T12:54:05.624Z,101384.75
2023-08-15T12:56:34.361Z,101383.03
2023-08-15T12:59:04.229Z,101380.44
2023-08-15T13:01:32.504Z,101384.56
2023-08-15T13:04:00.637Z,101384.41
2023-08-15T13:06:29.042Z,101375.06
2023-08-15T13:08:59.264Z,101374.75
2023-08-15T13:11:29.893Z,101362.31
2023-08-15T13:14:00.574Z,101361.47
2023-08-15T13:16:30.422Z,101379.41
2023-08-15T13:19:01.269Z,101379.94
2023-08-15T13:21:30.434Z,101380.94
2023-08-15T13:23:59.464Z,101402.88
2023-08-15T13:26:27.517Z,101391.69
2023-08-15T13:28:55.691Z,101390.63
2023-08-15T13:31:26.319Z,101375.78
2023-08-15T13:33:55.954Z,101376.47
2023-08-15T13:36:24.334Z,101378.19
2023-08-15T13:38:54.928Z,101368.38
2023-08-15T13:41:25.431Z,101378.00
2023-08-15T13:43:56.473Z,101384.06
2023-08-15T13:46:27.133Z,101390.25
2023-08-15T13:48:56.966Z,101409.22
2023-08-15T13:51:25.419Z,101409.94
2023-08-15T13:53:53.908Z,101418.38
2023-08-15T13:56:22.091Z,101407.69
2023-08-15T13:58:50.517Z,101420.97
2023-08-15T14:01:21.500Z,101407.88
2023-08-15T14:03:52.869Z,101408.22
2023-08-15T14:06:23.007Z,101406.19
2023-08-15T14:08:51.251Z,101416.34
2023-08-15T14:11:19.595Z,101413.75
2023-08-15T14:13:48.371Z,101418.03
2023-08-15T14:16:16.673Z,101423.41
2023-08-15T14:18:45.709Z,101426.13
2023-08-15T14:21:16.666Z,101423.38
2023-08-15T14:23:47.895Z,101424.97
2023-08-15T14:26:15.925Z,101418.19
2023-08-15T14:28:44.069Z,101417.69
2023-08-15T14:31:12.352Z,101414.75
2023-08-15T14:33:40.683Z,101419.44
2023-08-15T14:36:09.025Z,101427.34
2023-08-15T14:38:38.213Z,101434.63
2023-08-15T14:41:08.445Z,101417.50
2023-08-15T14:43:37.000Z,101409.41
2023-08-15T14:46:06.528Z,101405.09
2023-08-15T14:48:35.830Z,101414.88
2023-08-15T14:51:04.947Z,101417.84
2023-08-15T14:53:33.681Z,101422.50
2023-08-15T14:56:01.956Z,101410.06
2023-08-15T14:58:33.825Z,101421.44
2023-08-15T15:01:01.742Z,101425.03
2023-08-15T15:03:29.735Z,101427.47
2023-08-15T15:05:57.563Z,101444.72
2023-08-15T15:08:27.535Z,101435.75
2023-08-15T15:10:55.563Z,101428.16
2023-08-15T15:13:23.665Z,101438.19
2023-08-15T15:15:54.552Z,101434.88
2023-08-15T15:18:23.286Z,101442.66
2023-08-15T15:20:51.774Z,101443.66
2023-08-15T15:23:19.997Z,101433.59
2023-08-15T15:25:48.289Z,101434.47
2023-08-15T15:28:16.404Z,101436.06
2023-08-15T15:30:44.276Z,101431.22
2023-08-15T15:33:13.537Z,101437.78
2023-08-15T15:35:41.425Z,101437.06
2023-08-15T15:38:09.306Z,101433.13
2023-08-15T15:40:37.358Z,101432.91
2023-08-15T15:43:05.509Z,101435.09
2023-08-15T15:45:33.533Z,101430.88
2023-08-15T15:48:01.351Z,101430.88
2023-08-15T15:50:30.781Z,101438.59
2023-08-15T15:52:58.659Z,101428.06
2023-08-15T15:55:26.744Z,101433.66
2023-08-15T15:57:54.983Z,101440.75
2023-08-15T16:00:23.220Z,101439.22
2023-08-15T16:02:51.160Z,101443.34
2023-08-15T16:05:18.911Z,101447.50
2023-08-15T16:07:48.126Z,101452.34
2023-08-15T16:10:16.111Z,101451.50
2023-08-15T16:12:44.050Z,101450.13
2023-08-15T16:15:12.263Z,101455.09
2023-08-15T16:17:42.796Z,101458.19
2023-08-15T16:20:11.590Z,101449.38
2023-08-15T16:22:39.785Z,101442.41
2023-08-15T16:25:09.521Z,101441.31
2023-08-15T16:27:37.651Z,101456.25
2023-08-15T16:30:16.241Z,101449.88
2023-08-15T16:32:46.419Z,101450.56
2023-08-15T16:35:14.362Z,101444.69
2023-08-15T16:37:42.335Z,101460.56
2023-08-15T16:40:12.016Z,101454.19
2023-08-15T16:42:39.763Z,101461.59
2023-08-15T16:45:08.935Z,101450.56
2023-08-15T16:47:36.734Z,101475.28
2023-08-15T16:50:06.342Z,101464.69
2023-08-15T16:52:34.074Z,101461.94
2023-08-15T16:55:01.922Z,101460.91
2023-08-15T16:57:31.645Z,101470.06
2023-08-15T16:59:59.795Z,101464.03
2023-08-15T17:02:27.619Z,101467.50
2023-08-15T17:04:55.488Z,101470.41
2023-08-15T17:07:23.345Z,101464.34
2023-08-15T17:09:51.698Z,101449.72
2023-08-15T17:12:19.825Z,101459.91
2023-08-15T17:14:49.601Z,101462.28
2023-08-15T17:17:17.391Z,101464.34
2023-08-15T17:19:47.483Z,101457.13
2023-08-15T17:22:15.418Z,101460.63
2023-08-15T17:24:43.547Z,101466.81
2023-08-15T17:27:11.866Z,101446.38
2023-08-15T17:29:39.848Z,101454.03
2023-08-15T17:32:09.072Z,101470.63
2023-08-15T17:34:37.065Z,101472.16
2023-08-15T17:37:05.616Z,101464.03
2023-08-15T17:39:33.640Z,101460.56
2023-08-15T17:42:01.714Z,101480.28
2023-08-15T17:44:29.676Z,101492.88
2023-08-15T17:46:57.493Z,101509.13
2023-08-15T17:49:26.983Z,101496.69
2023-08-15T17:51:54.859Z,101478.56
2023-08-15T17:54:22.689Z,101482.72
2023-08-15T17:56:50.746Z,101484.78
2023-08-15T17:59:18.671Z,101500.84
2023-08-15T18:01:46.498Z,101505.31
2023-08-15T18:04:14.437Z,101507.75
2023-08-15T18:06:43.816Z,101520.13
2023-08-15T18:09:11.794Z,101538.34
2023-08-15T18:11:39.757Z,101542.16
2023-08-15T18:14:08.258Z,101551.63
2023-08-15T18:16:36.345Z,101553.81
2023-08-15T18:19:04.242Z,101583.25
2023-08-15T18:21:32.199Z,101598.19
2023-08-15T18:24:01.398Z,101618.84
2023-08-15T18:26:29.277Z,101626.69
2023-08-15T18:28:57.258Z,101630.19
2023-08-15T18:31:25.265Z,101650.06
2023-08-15T18:33:53.088Z,101656.53
2023-08-15T18:36:20.896Z,101668.19
2023-08-15T18:38:48.804Z,101670.31
2023-08-15T18:41:18.048Z,101682.81
2023-08-15T18:43:45.877Z,101691.84
2023-08-15T18:46:13.789Z,101703.78
2023-08-15T18:48:41.689Z,101700.06
2023-08-15T18:51:09.538Z,101698.56
2023-08-15T18:53:37.335Z,101682.13
2023-08-15T18:56:06.141Z,101703.31
2023-08-15T18:58:35.392Z,101709.84
2023-08-15T19:01:03.408Z,101711.16
2023-08-15T19:03:31.746Z,101696.03
2023-08-15T19:05:59.687Z,101698.41
2023-08-15T19:08:27.890Z,101696.41
2023-08-15T19:10:55.690Z,101701.69
2023-08-15T19:13:23.452Z,101712.41
2023-08-15T19:15:53.249Z,101698.94
2023-08-15T19:18:21.109Z,101688.13
2023-08-15T19:20:48.942Z,101682.59
2023-08-15T19:23:16.912Z,101695.84
2023-08-15T19:25:44.750Z,101696.09
2023-08-15T19:28:12.613Z,101709.16
2023-08-15T19:30:42.705Z,101710.34
2023-08-15T19:33:12.016Z,101698.41
2023-08-15T19:35:39.865Z,101706.00
2023-08-15T19:38:07.639Z,101716.06
2023-08-15T19:40:35.540Z,101723.25
2023-08-15T19:43:03.419Z,101720.03
2023-08-15T19:45:31.281Z,101718.75
2023-08-15T19:47:59.105Z,101728.38
2023-08-15T19:50:30.194Z,101733.31
2023-08-15T19:52:58.314Z,101750.41
2023-08-15T19:55:26.566Z,101767.91
2023-08-15T19:57:54.592Z,101768.19
2023-08-15T20:00:22.518Z,101766.63
2023-08-15T20:02:50.396Z,101768.19
2023-08-15T20:05:18.838Z,101748.91
2023-08-15T20:07:48.062Z,101744.91
2023-08-15T20:10:16.750Z,101738.03
2023-08-15T20:12:44.650Z,101743.44
2023-08-15T20:15:13.161Z,101735.75
2023-08-15T20:17:42.586Z,101754.66
2023-08-15T20:20:11.814Z,101758.50
2023-08-15T20:22:39.692Z,101764.56
2023-08-15T20:25:10.842Z,101762.84
2023-08-15T20:27:38.706Z,101772.28
2023-08-15T20:30:07.663Z,101787.28
2023-08-15T20:32:35.507Z,101787.16
2023-08-15T20:35:04.728Z,101801.69
2023-08-15T20:37:34.218Z,101814.44
2023-08-15T20:40:02.073Z,101806.59
2023-08-15T20:42:31.614Z,101819.06
2023-08-15T20:44:59.365Z,101816.31
2023-08-15T20:47:27.437Z,101815.00
2023-08-15T20:49:55.251Z,101821.66
2023-08-15T20:52:23.606Z,101828.03
2023-08-15T20:54:51.677Z,101817.75
2023-08-15T20:57:19.544Z,101829.91
2023-08-15T20:59:48.768Z,101829.19
2023-08-15T21:02:16.681Z,101824.41
2023-08-15T21:04:44.495Z,101808.22
2023-08-15T21:07:13.624Z,101807.34
2023-08-15T21:09:41.495Z,101802.13
2023-08-15T21:12:09.923Z,101808.94
2023-08-15T21:14:37.859Z,101810.66
2023-08-15T21:17:07.431Z,101812.53
2023-08-15T21:19:35.256Z,101813.28
2023-08-15T21:22:03.136Z,101809.81
2023-08-15T21:24:30.919Z,101818.47
2023-08-15T21:26:58.689Z,101830.34
2023-08-15T21:29:26.507Z,101838.31
2023-08-15T21:31:54.363Z,101837.28
2023-08-15T21:34:23.753Z,101839.03
2023-08-15T21:36:51.608Z,101837.00
2023-08-15T21:39:19.570Z,101842.91
2023-08-15T21:41:47.432Z,101849.31
2023-08-15T21:44:15.241Z,101842.91
2023-08-15T21:46:43.089Z,101834.56
2023-08-15T21:49:11.128Z,101849.16
2023-08-15T21:51:40.420Z,101859.13
2023-08-15T21:54:08.916Z,101865.50
2023-08-15T21:56:36.701Z,101864.88
2023-08-15T21:59:04.847Z,101866.50
2023-08-15T22:01:34.579Z,101868.09
2023-08-15T22:04:03.114Z,101882.09
2023-08-15T22:06:30.863Z,101886.22
2023-08-15T22:09:00.909Z,101887.84
2023-08-15T22:11:28.777Z,101895.56
2023-08-15T22:13:56.786Z,101902.75
2023-08-15T22:16:24.762Z,101900.75
2023-08-15T22:18:53.017Z,101899.44
2023-08-15T22:21:20.910Z,101908.34
2023-08-15T22:23:49.530Z,101902.72
2023-08-15T22:26:19.034Z,101904.16
2023-08-15T22:28:46.920Z,101902.22
2023-08-15T22:31:14.735Z,101896.00
2023-08-15T22:33:42.848Z,101898.00
2023-08-15T22:36:10.796Z,101905.66
2023-08-15T22:38:38.899Z,101896.72
2023-08-15T22:41:06.720Z,101893.88
2023-08-15T22:43:36.036Z,101901.22
2023-08-15T22:46:03.858Z,101907.66
2023-08-15T22:48:31.801Z,101927.09
2023-08-15T22:50:59.590Z,101944.69
2023-08-15T22:53:27.340Z,101944.13
2023-08-15T22:56:00.902Z,101950.31
2023-08-15T22:58:28.809Z,101962.41
2023-08-15T23:00:58.855Z,101964.91
2023-08-15T23:03:26.792Z,101960.06
2023-08-15T23:05:54.853Z,101972.53
2023-08-15T23:08:22.622Z,101981.56
2023-08-15T23:10:54.300Z,101995.88
2023-08-15T23:13:22.241Z,101999.88
2023-08-15T23:15:50.408Z,102004.03
2023-08-15T23:18:19.957Z,102015.72
2023-08-15T23:20:47.852Z,102017.84
2023-08-15T23:23:15.866Z,102037.31
2023-08-15T23:25:43.855Z,102073.06
2023-08-15T23:28:11.839Z,102137.25
2023-08-15T23:30:39.600Z,102176.38
2023-08-15T23:33:07.452Z,102205.44
2023-08-15T23:35:36.760Z,102214.53
2023-08-15T23:38:04.799Z,102233.97
2023-08-15T23:40:32.691Z,102231.59
2023-08-15T23:43:00.515Z,102099.88
2023-08-15T23:45:30.070Z,101991.34
2023-08-15T23:47:58.161Z,101917.31
2023-08-15T23:50:25.901Z,101900.41
2023-08-15T23:52:56.886Z,101900.53
2023-08-15T23:55:24.958Z,101906.63
2023-08-15T23:57:52.907Z,101897.69
